sensor_id;sensor_type;location;lat;lon;timestamp;P1;durP1;ratioP1;P2;durP2;ratioP2
40154;SDS011;25875;48.202;16.334;2023-06-24T00:01:08;3.83;;;2.25;;
40154;SDS011;25875;48.202;16.334;2023-06-24T00:03:38;3.13;;;1.85;;
40154;SDS011;25875;48.202;16.334;2023-06-24T00:06:05;2.88;;;1.95;;
40154;SDS011;25875;48.202;16.334;2023-06-24T00:08:31;3.10;;;1.90;;
40154;SDS011;25875;48.202;16.334;2023-06-24T00:10:59;4.93;;;1.92;;
40154;SDS011;25875;48.202;16.334;2023-06-24T00:13:27;4.00;;;2.10;;
40154;SDS011;25875;48.202;16.334;2023-06-24T00:15:54;3.38;;;2.03;;
40154;SDS011;25875;48.202;16.334;2023-06-24T00:18:22;3.22;;;2.00;;
40154;SDS011;25875;48.202;16.334;2023-06-24T00:20:49;3.75;;;2.00;;
40154;SDS011;25875;48.202;16.334;2023-06-24T00:23:16;4.28;;;1.90;;
40154;SDS011;25875;48.202;16.334;2023-06-24T00:25:49;3.45;;;1.83;;
40154;SDS011;25875;48.202;16.334;2023-06-24T00:28:16;3.75;;;1.77;;
40154;SDS011;25875;48.202;16.334;2023-06-24T00:30:43;4.75;;;2.40;;
40154;SDS011;25875;48.202;16.334;2023-06-24T00:33:09;3.10;;;2.00;;
40154;SDS011;25875;48.202;16.334;2023-06-24T00:35:40;4.00;;;1.92;;
40154;SDS011;25875;48.202;16.334;2023-06-24T00:38:07;4.22;;;2.00;;
40154;SDS011;25875;48.202;16.334;2023-06-24T00:40:33;3.10;;;1.83;;
40154;SDS011;25875;48.202;16.334;2023-06-24T00:43:00;3.00;;;1.80;;
40154;SDS011;25875;48.202;16.334;2023-06-24T00:45:28;3.00;;;2.20;;
40154;SDS011;25875;48.202;16.334;2023-06-24T00:47:57;2.85;;;1.90;;
40154;SDS011;25875;48.202;16.334;2023-06-24T00:50:24;3.67;;;2.40;;
40154;SDS011;25875;48.202;16.334;2023-06-24T00:52:52;3.28;;;2.03;;
40154;SDS011;25875;48.202;16.334;2023-06-24T00:55:19;3.28;;;2.03;;
40154;SDS011;25875;48.202;16.334;2023-06-24T00:57:47;3.42;;;2.15;;
40154;SDS011;25875;48.202;16.334;2023-06-24T01:00:16;4.60;;;2.45;;
40154;SDS011;25875;48.202;16.334;2023-06-24T01:02:46;3.30;;;2.30;;
40154;SDS011;25875;48.202;16.334;2023-06-24T01:05:13;3.75;;;2.08;;
40154;SDS011;25875;48.202;16.334;2023-06-24T01:07:40;3.42;;;1.83;;
40154;SDS011;25875;48.202;16.334;2023-06-24T01:10:10;4.35;;;2.22;;
40154;SDS011;25875;48.202;16.334;2023-06-24T01:12:38;4.47;;;2.38;;
40154;SDS011;25875;48.202;16.334;2023-06-24T01:15:06;3.10;;;2.28;;
40154;SDS011;25875;48.202;16.334;2023-06-24T01:17:35;3.58;;;2.20;;
40154;SDS011;25875;48.202;16.334;2023-06-24T01:20:09;2.90;;;1.97;;
40154;SDS011;25875;48.202;16.334;2023-06-24T01:23:01;3.55;;;2.17;;
40154;SDS011;25875;48.202;16.334;2023-06-24T01:26:12;3.13;;;2.25;;
40154;SDS011;25875;48.202;16.334;2023-06-24T01:28:53;3.00;;;2.20;;
40154;SDS011;25875;48.202;16.334;2023-06-24T01:31:49;5.28;;;2.05;;
40154;SDS011;25875;48.202;16.334;2023-06-24T01:34:21;3.40;;;2.20;;
40154;SDS011;25875;48.202;16.334;2023-06-24T01:36:55;5.88;;;2.00;;
40154;SDS011;25875;48.202;16.334;2023-06-24T01:39:31;3.25;;;2.03;;
40154;SDS011;25875;48.202;16.334;2023-06-24T01:42:06;3.70;;;2.40;;
40154;SDS011;25875;48.202;16.334;2023-06-24T01:44:36;3.47;;;2.28;;
40154;SDS011;25875;48.202;16.334;2023-06-24T01:47:07;3.33;;;2.17;;
40154;SDS011;25875;48.202;16.334;2023-06-24T01:49:38;5.38;;;2.70;;
40154;SDS011;25875;48.202;16.334;2023-06-24T01:52:08;3.67;;;2.58;;
40154;SDS011;25875;48.202;16.334;2023-06-24T01:54:35;3.30;;;2.40;;
40154;SDS011;25875;48.202;16.334;2023-06-24T01:57:05;4.45;;;2.63;;
40154;SDS011;25875;48.202;16.334;2023-06-24T01:59:35;3.47;;;2.65;;
40154;SDS011;25875;48.202;16.334;2023-06-24T02:02:07;2.85;;;2.00;;
40154;SDS011;25875;48.202;16.334;2023-06-24T02:04:35;2.92;;;2.05;;
40154;SDS011;25875;48.202;16.334;2023-06-24T02:07:02;4.90;;;2.78;;
40154;SDS011;25875;48.202;16.334;2023-06-24T02:09:31;4.82;;;2.40;;
40154;SDS011;25875;48.202;16.334;2023-06-24T02:12:00;4.32;;;2.45;;
40154;SDS011;25875;48.202;16.334;2023-06-24T02:14:28;3.28;;;2.15;;
40154;SDS011;25875;48.202;16.334;2023-06-24T02:16:56;3.50;;;2.42;;
40154;SDS011;25875;48.202;16.334;2023-06-24T02:19:28;3.45;;;2.30;;
40154;SDS011;25875;48.202;16.334;2023-06-24T02:21:56;4.97;;;2.50;;
40154;SDS011;25875;48.202;16.334;2023-06-24T02:24:24;3.50;;;2.45;;
40154;SDS011;25875;48.202;16.334;2023-06-24T02:26:52;4.38;;;2.13;;
40154;SDS011;25875;48.202;16.334;2023-06-24T02:29:19;3.58;;;2.00;;
40154;SDS011;25875;48.202;16.334;2023-06-24T02:31:48;2.75;;;1.90;;
40154;SDS011;25875;48.202;16.334;2023-06-24T02:34:15;4.05;;;1.98;;
40154;SDS011;25875;48.202;16.334;2023-06-24T02:36:43;4.50;;;2.20;;
40154;SDS011;25875;48.202;16.334;2023-06-24T02:39:10;2.97;;;1.90;;
40154;SDS011;25875;48.202;16.334;2023-06-24T02:41:36;3.45;;;2.35;;
40154;SDS011;25875;48.202;16.334;2023-06-24T02:44:03;3.00;;;2.40;;
40154;SDS011;25875;48.202;16.334;2023-06-24T02:46:30;4.25;;;2.70;;
40154;SDS011;25875;48.202;16.334;2023-06-24T02:48:59;4.28;;;2.33;;
40154;SDS011;25875;48.202;16.334;2023-06-24T02:51:27;3.30;;;2.30;;
40154;SDS011;25875;48.202;16.334;2023-06-24T02:53:56;3.78;;;2.47;;
40154;SDS011;25875;48.202;16.334;2023-06-24T02:56:24;2.80;;;2.05;;
40154;SDS011;25875;48.202;16.334;2023-06-24T02:58:53;4.63;;;2.42;;
40154;SDS011;25875;48.202;16.334;2023-06-24T03:01:20;9.95;;;6.78;;
40154;SDS011;25875;48.202;16.334;2023-06-24T03:03:50;16.95;;;13.25;;
40154;SDS011;25875;48.202;16.334;2023-06-24T03:06:19;9.52;;;6.45;;
40154;SDS011;25875;48.202;16.334;2023-06-24T03:08:47;7.10;;;4.80;;
40154;SDS011;25875;48.202;16.334;2023-06-24T03:11:16;4.15;;;3.03;;
40154;SDS011;25875;48.202;16.334;2023-06-24T03:13:43;3.30;;;2.20;;
40154;SDS011;25875;48.202;16.334;2023-06-24T03:16:10;3.70;;;2.28;;
40154;SDS011;25875;48.202;16.334;2023-06-24T03:18:39;3.65;;;1.83;;
40154;SDS011;25875;48.202;16.334;2023-06-24T03:21:06;2.92;;;2.20;;
40154;SDS011;25875;48.202;16.334;2023-06-24T03:23:33;2.95;;;1.90;;
40154;SDS011;25875;48.202;16.334;2023-06-24T03:26:00;3.60;;;2.53;;
40154;SDS011;25875;48.202;16.334;2023-06-24T03:28:29;3.75;;;2.20;;
40154;SDS011;25875;48.202;16.334;2023-06-24T03:30:56;2.78;;;2.00;;
40154;SDS011;25875;48.202;16.334;2023-06-24T03:33:23;3.08;;;2.10;;
40154;SDS011;25875;48.202;16.334;2023-06-24T03:35:51;4.15;;;2.42;;
40154;SDS011;25875;48.202;16.334;2023-06-24T03:38:19;2.67;;;2.08;;
40154;SDS011;25875;48.202;16.334;2023-06-24T03:40:46;3.30;;;2.22;;
40154;SDS011;25875;48.202;16.334;2023-06-24T03:43:12;2.63;;;1.80;;
40154;SDS011;25875;48.202;16.334;2023-06-24T03:45:40;2.97;;;1.92;;
40154;SDS011;25875;48.202;16.334;2023-06-24T03:48:07;2.80;;;1.80;;
40154;SDS011;25875;48.202;16.334;2023-06-24T03:50:34;2.42;;;1.70;;
40154;SDS011;25875;48.202;16.334;2023-06-24T03:53:01;2.88;;;1.90;;
40154;SDS011;25875;48.202;16.334;2023-06-24T03:55:28;3.95;;;1.80;;
40154;SDS011;25875;48.202;16.334;2023-06-24T03:57:55;2.63;;;1.52;;
40154;SDS011;25875;48.202;16.334;2023-06-24T04:00:21;1.98;;;1.38;;
40154;SDS011;25875;48.202;16.334;2023-06-24T04:02:49;1.98;;;1.40;;
40154;SDS011;25875;48.202;16.334;2023-06-24T04:05:17;2.92;;;1.92;;
40154;SDS011;25875;48.202;16.334;2023-06-24T04:07:44;2.90;;;1.50;;
40154;SDS011;25875;48.202;16.334;2023-06-24T04:10:12;2.88;;;1.60;;
40154;SDS011;25875;48.202;16.334;2023-06-24T04:12:39;3.58;;;1.83;;
40154;SDS011;25875;48.202;16.334;2023-06-24T04:15:06;3.47;;;1.60;;
40154;SDS011;25875;48.202;16.334;2023-06-24T04:17:33;2.45;;;1.52;;
40154;SDS011;25875;48.202;16.334;2023-06-24T04:20:01;2.55;;;1.83;;
40154;SDS011;25875;48.202;16.334;2023-06-24T04:22:32;2.72;;;1.40;;
40154;SDS011;25875;48.202;16.334;2023-06-24T04:24:58;2.17;;;1.52;;
40154;SDS011;25875;48.202;16.334;2023-06-24T04:27:25;1.80;;;1.25;;
40154;SDS011;25875;48.202;16.334;2023-06-24T04:29:52;2.70;;;1.58;;
40154;SDS011;25875;48.202;16.334;2023-06-24T04:32:18;2.17;;;1.50;;
40154;SDS011;25875;48.202;16.334;2023-06-24T04:34:45;1.92;;;1.20;;
40154;SDS011;25875;48.202;16.334;2023-06-24T04:37:13;1.83;;;1.30;;
40154;SDS011;25875;48.202;16.334;2023-06-24T04:39:40;2.00;;;1.58;;
40154;SDS011;25875;48.202;16.334;2023-06-24T04:42:06;1.90;;;1.30;;
40154;SDS011;25875;48.202;16.334;2023-06-24T04:44:33;3.53;;;1.45;;
40154;SDS011;25875;48.202;16.334;2023-06-24T04:47:00;2.53;;;1.40;;
40154;SDS011;25875;48.202;16.334;2023-06-24T04:49:27;2.08;;;1.50;;
40154;SDS011;25875;48.202;16.334;2023-06-24T04:51:53;2.15;;;1.40;;
40154;SDS011;25875;48.202;16.334;2023-06-24T04:54:22;2.25;;;1.55;;
40154;SDS011;25875;48.202;16.334;2023-06-24T04:56:48;2.10;;;1.40;;
40154;SDS011;25875;48.202;16.334;2023-06-24T04:59:16;1.80;;;1.27;;
40154;SDS011;25875;48.202;16.334;2023-06-24T05:01:43;2.42;;;1.58;;
40154;SDS011;25875;48.202;16.334;2023-06-24T05:04:10;1.98;;;1.27;;
40154;SDS011;25875;48.202;16.334;2023-06-24T05:06:36;2.33;;;1.45;;
40154;SDS011;25875;48.202;16.334;2023-06-24T05:09:03;1.83;;;1.30;;
40154;SDS011;25875;48.202;16.334;2023-06-24T05:11:31;2.15;;;1.42;;
40154;SDS011;25875;48.202;16.334;2023-06-24T05:13:59;1.88;;;1.40;;
40154;SDS011;25875;48.202;16.334;2023-06-24T05:16:26;1.92;;;1.30;;
40154;SDS011;25875;48.202;16.334;2023-06-24T05:18:52;1.73;;;1.30;;
40154;SDS011;25875;48.202;16.334;2023-06-24T05:21:19;1.90;;;1.27;;
40154;SDS011;25875;48.202;16.334;2023-06-24T05:23:46;1.67;;;1.15;;
40154;SDS011;25875;48.202;16.334;2023-06-24T05:26:12;1.65;;;1.20;;
40154;SDS011;25875;48.202;16.334;2023-06-24T05:28:41;3.10;;;1.33;;
40154;SDS011;25875;48.202;16.334;2023-06-24T05:31:07;2.13;;;1.33;;
40154;SDS011;25875;48.202;16.334;2023-06-24T05:33:34;2.22;;;1.40;;
40154;SDS011;25875;48.202;16.334;2023-06-24T05:36:01;2.00;;;1.40;;
40154;SDS011;25875;48.202;16.334;2023-06-24T05:38:27;2.13;;;1.30;;
40154;SDS011;25875;48.202;16.334;2023-06-24T05:40:54;2.08;;;1.50;;
40154;SDS011;25875;48.202;16.334;2023-06-24T05:43:21;2.25;;;1.50;;
40154;SDS011;25875;48.202;16.334;2023-06-24T05:45:49;1.75;;;1.20;;
40154;SDS011;25875;48.202;16.334;2023-06-24T05:48:16;1.80;;;1.30;;
40154;SDS011;25875;48.202;16.334;2023-06-24T05:50:42;2.08;;;1.30;;
40154;SDS011;25875;48.202;16.334;2023-06-24T05:53:09;2.17;;;1.42;;
40154;SDS011;25875;48.202;16.334;2023-06-24T05:55:36;3.10;;;1.48;;
40154;SDS011;25875;48.202;16.334;2023-06-24T05:58:02;2.05;;;1.40;;
40154;SDS011;25875;48.202;16.334;2023-06-24T06:00:29;1.38;;;1.10;;
40154;SDS011;25875;48.202;16.334;2023-06-24T06:02:57;1.52;;;1.20;;
40154;SDS011;25875;48.202;16.334;2023-06-24T06:05:24;1.90;;;1.40;;
40154;SDS011;25875;48.202;16.334;2023-06-24T06:07:51;1.80;;;1.30;;
40154;SDS011;25875;48.202;16.334;2023-06-24T06:10:18;1.73;;;1.20;;
40154;SDS011;25875;48.202;16.334;2023-06-24T06:12:46;1.77;;;1.30;;
40154;SDS011;25875;48.202;16.334;2023-06-24T06:15:13;1.60;;;1.27;;
40154;SDS011;25875;48.202;16.334;2023-06-24T06:17:39;1.30;;;1.10;;
40154;SDS011;25875;48.202;16.334;2023-06-24T06:20:08;1.70;;;1.20;;
40154;SDS011;25875;48.202;16.334;2023-06-24T06:22:36;2.22;;;1.42;;
40154;SDS011;25875;48.202;16.334;2023-06-24T06:25:04;2.10;;;1.30;;
40154;SDS011;25875;48.202;16.334;2023-06-24T06:27:31;2.10;;;1.35;;
40154;SDS011;25875;48.202;16.334;2023-06-24T06:29:58;1.83;;;1.27;;
40154;SDS011;25875;48.202;16.334;2023-06-24T06:32:25;1.77;;;1.20;;
40154;SDS011;25875;48.202;16.334;2023-06-24T06:34:51;2.03;;;1.30;;
40154;SDS011;25875;48.202;16.334;2023-06-24T06:37:20;2.63;;;1.60;;
40154;SDS011;25875;48.202;16.334;2023-06-24T06:39:46;2.00;;;1.40;;
40154;SDS011;25875;48.202;16.334;2023-06-24T06:42:13;1.73;;;1.23;;
40154;SDS011;25875;48.202;16.334;2023-06-24T06:44:40;2.15;;;1.35;;
40154;SDS011;25875;48.202;16.334;2023-06-24T06:47:07;1.42;;;1.10;;
40154;SDS011;25875;48.202;16.334;2023-06-24T06:49:34;2.55;;;1.50;;
40154;SDS011;25875;48.202;16.334;2023-06-24T06:52:00;2.17;;;1.42;;
40154;SDS011;25875;48.202;16.334;2023-06-24T06:54:28;2.20;;;1.40;;
40154;SDS011;25875;48.202;16.334;2023-06-24T06:56:59;1.80;;;1.27;;
40154;SDS011;25875;48.202;16.334;2023-06-24T06:59:26;2.20;;;1.50;;
40154;SDS011;25875;48.202;16.334;2023-06-24T07:01:53;2.25;;;1.73;;
40154;SDS011;25875;48.202;16.334;2023-06-24T07:04:20;2.20;;;1.30;;
40154;SDS011;25875;48.202;16.334;2023-06-24T07:06:46;2.20;;;1.40;;
40154;SDS011;25875;48.202;16.334;2023-06-24T07:09:13;2.03;;;1.40;;
40154;SDS011;25875;48.202;16.334;2023-06-24T07:11:41;2.63;;;1.52;;
40154;SDS011;25875;48.202;16.334;2023-06-24T07:14:08;2.20;;;1.42;;
40154;SDS011;25875;48.202;16.334;2023-06-24T07:16:36;2.00;;;1.38;;
40154;SDS011;25875;48.202;16.334;2023-06-24T07:19:03;2.10;;;1.40;;
40154;SDS011;25875;48.202;16.334;2023-06-24T07:21:29;2.40;;;1.60;;
40154;SDS011;25875;48.202;16.334;2023-06-24T07:23:56;2.30;;;1.40;;
40154;SDS011;25875;48.202;16.334;2023-06-24T07:26:23;2.17;;;1.45;;
40154;SDS011;25875;48.202;16.334;2023-06-24T07:28:51;2.85;;;1.70;;
40154;SDS011;25875;48.202;16.334;2023-06-24T07:31:18;2.80;;;1.90;;
40154;SDS011;25875;48.202;16.334;2023-06-24T07:33:44;3.10;;;2.25;;
40154;SDS011;25875;48.202;16.334;2023-06-24T07:36:11;2.95;;;1.88;;
40154;SDS011;25875;48.202;16.334;2023-06-24T07:38:38;2.40;;;1.60;;
40154;SDS011;25875;48.202;16.334;2023-06-24T07:41:05;2.92;;;1.92;;
40154;SDS011;25875;48.202;16.334;2023-06-24T07:43:32;2.78;;;1.70;;
40154;SDS011;25875;48.202;16.334;2023-06-24T07:46:00;3.17;;;2.25;;
40154;SDS011;25875;48.202;16.334;2023-06-24T07:48:27;3.47;;;2.10;;
40154;SDS011;25875;48.202;16.334;2023-06-24T07:50:54;2.80;;;1.90;;
40154;SDS011;25875;48.202;16.334;2023-06-24T07:53:20;2.55;;;1.75;;
40154;SDS011;25875;48.202;16.334;2023-06-24T07:55:47;2.60;;;2.05;;
40154;SDS011;25875;48.202;16.334;2023-06-24T07:58:14;3.40;;;2.42;;
40154;SDS011;25875;48.202;16.334;2023-06-24T08:00:40;3.00;;;2.30;;
40154;SDS011;25875;48.202;16.334;2023-06-24T08:03:09;4.18;;;2.50;;
40154;SDS011;25875;48.202;16.334;2023-06-24T08:05:35;3.28;;;2.60;;
40154;SDS011;25875;48.202;16.334;2023-06-24T08:08:04;3.42;;;2.50;;
40154;SDS011;25875;48.202;16.334;2023-06-24T08:10:31;3.50;;;2.30;;
40154;SDS011;25875;48.202;16.334;2023-06-24T08:12:57;3.75;;;2.60;;
40154;SDS011;25875;48.202;16.334;2023-06-24T08:15:24;3.63;;;2.80;;
40154;SDS011;25875;48.202;16.334;2023-06-24T08:17:51;4.65;;;2.50;;
40154;SDS011;25875;48.202;16.334;2023-06-24T08:20:19;2.90;;;2.03;;
40154;SDS011;25875;48.202;16.334;2023-06-24T08:22:46;3.10;;;2.20;;
40154;SDS011;25875;48.202;16.334;2023-06-24T08:25:13;3.50;;;2.53;;
40154;SDS011;25875;48.202;16.334;2023-06-24T08:27:39;3.83;;;2.67;;
40154;SDS011;25875;48.202;16.334;2023-06-24T08:30:08;4.82;;;3.50;;
40154;SDS011;25875;48.202;16.334;2023-06-24T08:32:36;3.30;;;2.50;;
40154;SDS011;25875;48.202;16.334;2023-06-24T08:35:03;3.50;;;2.50;;
40154;SDS011;25875;48.202;16.334;2023-06-24T08:37:32;4.10;;;3.30;;
40154;SDS011;25875;48.202;16.334;2023-06-24T08:40:00;3.45;;;2.88;;
40154;SDS011;25875;48.202;16.334;2023-06-24T08:42:27;3.20;;;2.40;;
40154;SDS011;25875;48.202;16.334;2023-06-24T08:44:54;4.00;;;2.90;;
40154;SDS011;25875;48.202;16.334;2023-06-24T08:47:21;4.80;;;3.20;;
40154;SDS011;25875;48.202;16.334;2023-06-24T08:49:52;3.90;;;2.85;;
40154;SDS011;25875;48.202;16.334;2023-06-24T08:52:21;4.07;;;2.78;;
40154;SDS011;25875;48.202;16.334;2023-06-24T08:54:52;4.85;;;2.70;;
40154;SDS011;25875;48.202;16.334;2023-06-24T08:57:22;3.80;;;3.20;;
40154;SDS011;25875;48.202;16.334;2023-06-24T08:59:50;4.95;;;2.97;;
40154;SDS011;25875;48.202;16.334;2023-06-24T09:02:17;4.32;;;3.38;;
40154;SDS011;25875;48.202;16.334;2023-06-24T09:04:43;4.45;;;2.72;;
40154;SDS011;25875;48.202;16.334;2023-06-24T09:07:10;4.13;;;3.22;;
40154;SDS011;25875;48.202;16.334;2023-06-24T09:09:41;3.80;;;3.13;;
40154;SDS011;25875;48.202;16.334;2023-06-24T09:12:12;3.58;;;2.60;;
40154;SDS011;25875;48.202;16.334;2023-06-24T09:14:40;3.60;;;2.70;;
40154;SDS011;25875;48.202;16.334;2023-06-24T09:17:08;3.50;;;2.75;;
40154;SDS011;25875;48.202;16.334;2023-06-24T09:19:36;3.28;;;2.50;;
40154;SDS011;25875;48.202;16.334;2023-06-24T09:22:03;3.25;;;2.50;;
40154;SDS011;25875;48.202;16.334;2023-06-24T09:24:31;3.40;;;2.47;;
40154;SDS011;25875;48.202;16.334;2023-06-24T09:26:58;3.42;;;2.58;;
40154;SDS011;25875;48.202;16.334;2023-06-24T09:29:27;4.00;;;2.20;;
40154;SDS011;25875;48.202;16.334;2023-06-24T09:31:54;4.95;;;2.55;;
40154;SDS011;25875;48.202;16.334;2023-06-24T09:34:23;3.10;;;2.33;;
40154;SDS011;25875;48.202;16.334;2023-06-24T09:36:51;5.00;;;2.30;;
40154;SDS011;25875;48.202;16.334;2023-06-24T09:39:18;5.70;;;2.55;;
40154;SDS011;25875;48.202;16.334;2023-06-24T09:41:48;3.10;;;2.50;;
40154;SDS011;25875;48.202;16.334;2023-06-24T09:44:15;4.65;;;2.40;;
40154;SDS011;25875;48.202;16.334;2023-06-24T09:46:45;3.30;;;2.33;;
40154;SDS011;25875;48.202;16.334;2023-06-24T09:49:12;3.00;;;2.40;;
40154;SDS011;25875;48.202;16.334;2023-06-24T09:51:43;3.22;;;2.10;;
40154;SDS011;25875;48.202;16.334;2023-06-24T09:54:11;3.10;;;2.20;;
40154;SDS011;25875;48.202;16.334;2023-06-24T09:56:39;3.35;;;2.50;;
40154;SDS011;25875;48.202;16.334;2023-06-24T09:59:08;2.70;;;2.22;;
40154;SDS011;25875;48.202;16.334;2023-06-24T10:01:38;3.40;;;2.30;;
40154;SDS011;25875;48.202;16.334;2023-06-24T10:04:07;3.35;;;2.45;;
40154;SDS011;25875;48.202;16.334;2023-06-24T10:06:35;4.60;;;2.40;;
40154;SDS011;25875;48.202;16.334;2023-06-24T10:09:02;3.13;;;2.63;;
40154;SDS011;25875;48.202;16.334;2023-06-24T10:11:29;3.53;;;2.85;;
40154;SDS011;25875;48.202;16.334;2023-06-24T10:13:56;3.90;;;2.85;;
40154;SDS011;25875;48.202;16.334;2023-06-24T10:16:23;4.60;;;2.75;;
40154;SDS011;25875;48.202;16.334;2023-06-24T10:18:50;5.25;;;3.33;;
40154;SDS011;25875;48.202;16.334;2023-06-24T10:21:18;4.28;;;3.17;;
40154;SDS011;25875;48.202;16.334;2023-06-24T10:23:51;3.85;;;3.03;;
40154;SDS011;25875;48.202;16.334;2023-06-24T10:31:51;4.90;;;4.40;;
40154;SDS011;25875;48.202;16.334;2023-06-24T10:34:24;4.00;;;3.42;;
40154;SDS011;25875;48.202;16.334;2023-06-24T10:36:55;3.92;;;3.38;;
40154;SDS011;25875;48.202;16.334;2023-06-24T10:39:34;5.35;;;3.70;;
40154;SDS011;25875;48.202;16.334;2023-06-24T10:45:18;4.35;;;3.95;;
40154;SDS011;25875;48.202;16.334;2023-06-24T10:47:47;3.78;;;3.25;;
40154;SDS011;25875;48.202;16.334;2023-06-24T10:50:15;5.53;;;4.50;;
40154;SDS011;25875;48.202;16.334;2023-06-24T10:52:48;4.35;;;3.83;;
40154;SDS011;25875;48.202;16.334;2023-06-24T10:55:18;4.68;;;4.18;;
40154;SDS011;25875;48.202;16.334;2023-06-24T10:57:45;4.75;;;4.00;;
40154;SDS011;25875;48.202;16.334;2023-06-24T11:00:12;5.00;;;3.72;;
40154;SDS011;25875;48.202;16.334;2023-06-24T11:02:40;4.45;;;3.50;;
40154;SDS011;25875;48.202;16.334;2023-06-24T11:05:07;5.95;;;4.22;;
40154;SDS011;25875;48.202;16.334;2023-06-24T11:07:35;5.40;;;3.40;;
40154;SDS011;25875;48.202;16.334;2023-06-24T11:10:05;4.88;;;4.38;;
40154;SDS011;25875;48.202;16.334;2023-06-24T11:12:34;5.18;;;4.28;;
40154;SDS011;25875;48.202;16.334;2023-06-24T11:15:02;5.97;;;5.10;;
40154;SDS011;25875;48.202;16.334;2023-06-24T11:17:30;6.03;;;5.15;;
40154;SDS011;25875;48.202;16.334;2023-06-24T11:19:57;6.35;;;5.75;;
40154;SDS011;25875;48.202;16.334;2023-06-24T11:22:24;5.47;;;4.90;;
40154;SDS011;25875;48.202;16.334;2023-06-24T11:24:52;6.72;;;5.63;;
40154;SDS011;25875;48.202;16.334;2023-06-24T11:27:25;6.57;;;5.95;;
40154;SDS011;25875;48.202;16.334;2023-06-24T11:29:52;5.70;;;4.90;;
40154;SDS011;25875;48.202;16.334;2023-06-24T11:32:19;6.25;;;5.65;;
40154;SDS011;25875;48.202;16.334;2023-06-24T11:34:46;6.95;;;5.15;;
40154;SDS011;25875;48.202;16.334;2023-06-24T11:37:14;6.13;;;5.53;;
40154;SDS011;25875;48.202;16.334;2023-06-24T11:39:41;5.80;;;5.20;;
40154;SDS011;25875;48.202;16.334;2023-06-24T11:42:09;5.68;;;4.88;;
40154;SDS011;25875;48.202;16.334;2023-06-24T11:44:41;6.80;;;5.93;;
40154;SDS011;25875;48.202;16.334;2023-06-24T11:47:09;5.63;;;5.03;;
40154;SDS011;25875;48.202;16.334;2023-06-24T11:49:50;5.80;;;5.13;;
40154;SDS011;25875;48.202;16.334;2023-06-24T11:52:18;6.75;;;5.65;;
40154;SDS011;25875;48.202;16.334;2023-06-24T11:54:45;6.05;;;5.45;;
40154;SDS011;25875;48.202;16.334;2023-06-24T11:57:12;5.68;;;5.03;;
40154;SDS011;25875;48.202;16.334;2023-06-24T11:59:38;6.47;;;5.63;;
40154;SDS011;25875;48.202;16.334;2023-06-24T12:02:06;5.63;;;5.05;;
40154;SDS011;25875;48.202;16.334;2023-06-24T12:07:09;6.47;;;5.32;;
40154;SDS011;25875;48.202;16.334;2023-06-24T12:09:36;6.40;;;5.38;;
40154;SDS011;25875;48.202;16.334;2023-06-24T12:12:04;7.70;;;6.28;;
40154;SDS011;25875;48.202;16.334;2023-06-24T12:14:31;7.93;;;5.78;;
40154;SDS011;25875;48.202;16.334;2023-06-24T12:16:58;6.88;;;5.63;;
40154;SDS011;25875;48.202;16.334;2023-06-24T12:19:26;6.88;;;6.20;;
40154;SDS011;25875;48.202;16.334;2023-06-24T12:21:53;7.68;;;6.00;;
40154;SDS011;25875;48.202;16.334;2023-06-24T12:24:21;6.85;;;5.75;;
40154;SDS011;25875;48.202;16.334;2023-06-24T12:26:48;8.00;;;6.05;;
40154;SDS011;25875;48.202;16.334;2023-06-24T12:29:15;7.22;;;6.53;;
40154;SDS011;25875;48.202;16.334;2023-06-24T12:31:41;6.68;;;6.00;;
40154;SDS011;25875;48.202;16.334;2023-06-24T12:34:08;6.25;;;5.50;;
40154;SDS011;25875;48.202;16.334;2023-06-24T12:36:36;7.20;;;6.05;;
40154;SDS011;25875;48.202;16.334;2023-06-24T12:39:03;6.65;;;6.00;;
40154;SDS011;25875;48.202;16.334;2023-06-24T12:41:30;7.22;;;6.53;;
40154;SDS011;25875;48.202;16.334;2023-06-24T12:43:57;6.75;;;6.00;;
40154;SDS011;25875;48.202;16.334;2023-06-24T12:46:24;7.18;;;6.47;;
40154;SDS011;25875;48.202;16.334;2023-06-24T12:48:50;7.57;;;6.68;;
40154;SDS011;25875;48.202;16.334;2023-06-24T12:51:17;7.40;;;6.57;;
40154;SDS011;25875;48.202;16.334;2023-06-24T12:53:45;7.97;;;5.93;;
40154;SDS011;25875;48.202;16.334;2023-06-24T12:56:12;7.18;;;5.85;;
40154;SDS011;25875;48.202;16.334;2023-06-24T12:58:39;6.93;;;6.22;;
40154;SDS011;25875;48.202;16.334;2023-06-24T13:01:05;6.85;;;6.05;;
40154;SDS011;25875;48.202;16.334;2023-06-24T13:03:32;7.38;;;6.68;;
40154;SDS011;25875;48.202;16.334;2023-06-24T13:05:59;7.38;;;6.18;;
40154;SDS011;25875;48.202;16.334;2023-06-24T13:08:25;8.18;;;6.80;;
40154;SDS011;25875;48.202;16.334;2023-06-24T13:10:54;7.63;;;6.43;;
40154;SDS011;25875;48.202;16.334;2023-06-24T13:13:20;8.70;;;7.20;;
40154;SDS011;25875;48.202;16.334;2023-06-24T13:15:47;7.80;;;6.10;;
40154;SDS011;25875;48.202;16.334;2023-06-24T13:18:14;10.10;;;6.82;;
40154;SDS011;25875;48.202;16.334;2023-06-24T13:20:40;9.05;;;7.05;;
40154;SDS011;25875;48.202;16.334;2023-06-24T13:23:07;7.60;;;6.90;;
40154;SDS011;25875;48.202;16.334;2023-06-24T13:25:34;7.53;;;6.40;;
40154;SDS011;25875;48.202;16.334;2023-06-24T13:28:02;6.85;;;6.20;;
40154;SDS011;25875;48.202;16.334;2023-06-24T13:30:29;7.38;;;6.60;;
40154;SDS011;25875;48.202;16.334;2023-06-24T13:32:56;6.68;;;5.97;;
40154;SDS011;25875;48.202;16.334;2023-06-24T13:35:22;7.03;;;6.30;;
40154;SDS011;25875;48.202;16.334;2023-06-24T13:37:49;7.20;;;6.50;;
40154;SDS011;25875;48.202;16.334;2023-06-24T13:40:16;7.80;;;6.78;;
40154;SDS011;25875;48.202;16.334;2023-06-24T13:42:43;6.90;;;6.22;;
40154;SDS011;25875;48.202;16.334;2023-06-24T13:45:11;7.15;;;6.45;;
40154;SDS011;25875;48.202;16.334;2023-06-24T13:47:38;7.03;;;5.82;;
40154;SDS011;25875;48.202;16.334;2023-06-24T13:50:05;9.95;;;8.95;;
40154;SDS011;25875;48.202;16.334;2023-06-24T13:52:33;11.35;;;9.23;;
40154;SDS011;25875;48.202;16.334;2023-06-24T13:55:00;9.85;;;8.90;;
40154;SDS011;25875;48.202;16.334;2023-06-24T13:57:26;10.45;;;8.40;;
40154;SDS011;25875;48.202;16.334;2023-06-24T13:59:53;15.77;;;13.77;;
40154;SDS011;25875;48.202;16.334;2023-06-24T14:02:21;10.57;;;9.48;;
40154;SDS011;25875;48.202;16.334;2023-06-24T14:04:48;8.27;;;7.20;;
40154;SDS011;25875;48.202;16.334;2023-06-24T14:07:15;7.88;;;6.90;;
40154;SDS011;25875;48.202;16.334;2023-06-24T14:09:41;8.60;;;6.80;;
40154;SDS011;25875;48.202;16.334;2023-06-24T14:12:09;6.60;;;5.90;;
40154;SDS011;25875;48.202;16.334;2023-06-24T14:14:36;7.18;;;6.47;;
40154;SDS011;25875;48.202;16.334;2023-06-24T14:17:04;9.32;;;6.70;;
40154;SDS011;25875;48.202;16.334;2023-06-24T14:19:36;7.75;;;6.95;;
40154;SDS011;25875;48.202;16.334;2023-06-24T14:22:04;7.68;;;6.88;;
40154;SDS011;25875;48.202;16.334;2023-06-24T14:24:31;8.90;;;6.53;;
40154;SDS011;25875;48.202;16.334;2023-06-24T14:26:58;7.10;;;6.40;;
40154;SDS011;25875;48.202;16.334;2023-06-24T14:29:24;7.32;;;5.80;;
40154;SDS011;25875;48.202;16.334;2023-06-24T14:31:51;6.70;;;6.00;;
40154;SDS011;25875;48.202;16.334;2023-06-24T14:34:18;6.82;;;6.13;;
40154;SDS011;25875;48.202;16.334;2023-06-24T14:36:47;7.53;;;6.28;;
40154;SDS011;25875;48.202;16.334;2023-06-24T14:39:14;6.38;;;5.75;;
40154;SDS011;25875;48.202;16.334;2023-06-24T14:41:41;7.13;;;6.43;;
40154;SDS011;25875;48.202;16.334;2023-06-24T14:44:08;7.05;;;6.30;;
40154;SDS011;25875;48.202;16.334;2023-06-24T14:46:35;7.53;;;6.70;;
40154;SDS011;25875;48.202;16.334;2023-06-24T14:49:01;7.88;;;7.07;;